Amawalk, New York
Current Conditions -  °F | °C
As of 9:56 AM on Sunday 21 Dec 2014 (Local Time) from KHPN Reporting Station
Light Snow Light Snow  
Wind Chill: 25°   Ceiling: 1200
Heat Index: 31°   Visibility: 4mi
Dew Point: 25°   Wind: 6mph
Humidity: 79%   Direction: 330°NNW
Pressure: 30.29"   Gusts: NA
Location:  41.29°N, 73.77°W
Report Text: KHPN 211456Z 33005KT 4SM -SN OVC012 M01/M04 A3029 RMK AO2 SNB52 SLP266 P0000 60000 T10061039 53008
Loading
Personal Weather Stations






























Interactive Weather Map New forecast layout! Learn more

10-Day Weather Forecast

Advertisements
Track Severe Weather on mobile